Time;durP1;ratioP1;P1;durP2;ratioP2;P2;SDS_P1;SDS_P2;PMS_P1;PMS_P2;Temp;Humidity;BMP_temperature;BMP_pressure;BME280_temperature;BME280_humidity;BME280_pressure;Samples;Min_cycle;Max_cycle;Signal;HPM_P1;HPM_P2
2021/06/03 00:02:01;;;;;;;1.13;0.32;;;20.50;58.40;;;;;;4973441;28;20035;-85
2021/06/03 00:04:27;;;;;;;1.17;0.55;;;20.50;58.40;;;;;;4974891;28;20034;-85
2021/06/03 00:06:53;;;;;;;0.50;0.25;;;20.50;58.50;;;;;;4975579;28;20391;-85
2021/06/03 00:09:19;;;;;;;1.80;0.68;;;20.40;58.50;;;;;;4991209;28;20031;-82
2021/06/03 00:11:45;;;;;;;2.13;0.80;;;20.40;58.60;;;;;;4991071;28;20476;-85
2021/06/03 00:14:11;;;;;;;5.63;0.50;;;20.40;58.70;;;;;;4991232;28;20035;-85
2021/06/03 00:16:37;;;;;;;1.60;0.73;;;20.30;58.70;;;;;;4984344;28;22572;-85
2021/06/03 00:19:08;;;;;;;1.33;0.50;;;20.30;58.80;;;;;;5011781;28;20560;-85
2021/06/03 00:21:34;;;;;;;1.10;0.30;;;20.30;58.80;;;;;;4976114;28;20477;-85
2021/06/03 00:24:01;;;;;;;1.10;0.55;;;20.20;58.80;;;;;;4974553;28;20034;-84
2021/06/03 00:26:27;;;;;;;1.95;0.80;;;20.20;58.90;;;;;;4962839;28;20034;-84
2021/06/03 00:28:53;;;;;;;1.63;0.77;;;20.20;59.00;;;;;;4974399;28;20475;-85
2021/06/03 00:31:19;;;;;;;0.77;0.35;;;20.10;59.00;;;;;;4978742;28;20035;-85
2021/06/03 00:33:45;;;;;;;1.55;0.60;;;20.10;59.00;;;;;;4990624;28;20046;-86
2021/06/03 00:36:12;;;;;;;2.58;0.75;;;20.10;59.10;;;;;;4974542;28;20030;-86
2021/06/03 00:38:39;;;;;;;1.00;0.32;;;20.10;59.10;;;;;;4975472;28;20054;-85
2021/06/03 00:41:05;;;;;;;1.35;0.73;;;20.10;59.10;;;;;;4974520;28;20030;-83
2021/06/03 00:43:31;;;;;;;4.43;0.93;;;20.10;59.20;;;;;;4975687;28;20488;-86
2021/06/03 00:45:57;;;;;;;1.20;0.60;;;20.00;59.10;;;;;;4957940;28;20058;-85
2021/06/03 00:48:23;;;;;;;2.03;0.68;;;20.00;59.20;;;;;;4974311;28;20027;-85
2021/06/03 00:50:51;;;;;;;3.85;0.73;;;20.00;59.30;;;;;;4974327;28;20398;-85
2021/06/03 00:53:17;;;;;;;3.00;0.85;;;19.90;59.30;;;;;;4974199;28;20027;-85
2021/06/03 00:55:47;;;;;;;2.28;0.77;;;19.90;59.40;;;;;;4974218;28;20503;-83
2021/06/03 00:58:13;;;;;;;0.97;0.57;;;19.90;59.40;;;;;;4971799;28;20038;-83
2021/06/03 01:00:40;;;;;;;2.13;0.50;;;19.90;59.50;;;;;;4978292;28;20046;-84
2021/06/03 01:03:06;;;;;;;4.32;1.08;;;19.90;59.50;;;;;;4983188;28;20038;-85
2021/06/03 01:05:35;;;;;;;2.03;0.73;;;19.80;59.50;;;;;;4978226;28;20034;-85
2021/06/03 01:08:02;;;;;;;1.48;0.40;;;19.80;59.60;;;;;;4977010;28;20023;-85
2021/06/03 01:10:36;;;;;;;2.83;1.25;;;19.70;59.70;;;;;;4976243;28;20043;-85
2021/06/03 01:13:25;;;;;;;3.13;1.23;;;19.70;59.80;;;;;;5009504;28;20392;-85
2021/06/03 01:15:51;;;;;;;1.33;0.60;;;19.70;59.80;;;;;;4990302;28;20395;-82
2021/06/03 01:18:17;;;;;;;1.13;0.50;;;19.70;59.80;;;;;;4973803;28;20037;-85
2021/06/03 01:20:45;;;;;;;1.23;0.52;;;19.70;59.90;;;;;;4973733;28;20042;-86
2021/06/03 01:23:34;;;;;;;1.98;0.60;;;19.70;59.90;;;;;;4973667;28;20416;-85
2021/06/03 01:26:01;;;;;;;1.90;0.88;;;19.60;60.00;;;;;;4960413;28;20026;-84
2021/06/03 01:28:27;;;;;;;2.15;0.82;;;19.60;60.00;;;;;;4973641;28;20467;-84
2021/06/03 01:30:55;;;;;;;4.53;0.95;;;19.60;60.00;;;;;;4980158;28;20042;-85
2021/06/03 01:33:26;;;;;;;3.08;0.75;;;19.60;60.10;;;;;;4980306;28;20034;-85
2021/06/03 01:35:54;;;;;;;2.35;0.40;;;19.50;60.10;;;;;;4977645;28;20089;-84
2021/06/03 01:38:26;;;;;;;2.80;0.80;;;19.50;60.30;;;;;;4977799;28;20023;-85
2021/06/03 01:40:52;;;;;;;9.43;0.82;;;19.50;60.30;;;;;;4973776;28;20490;-83
2021/06/03 01:43:19;;;;;;;2.83;1.02;;;19.50;60.30;;;;;;4977243;28;20030;-84
2021/06/03 01:45:46;;;;;;;1.05;0.60;;;19.50;60.30;;;;;;4992578;28;20039;-85
2021/06/03 01:48:13;;;;;;;1.38;0.80;;;19.40;60.40;;;;;;4973325;28;20035;-85
2021/06/03 01:50:40;;;;;;;2.13;0.77;;;19.40;60.40;;;;;;4973066;28;20038;-85
2021/06/03 01:53:06;;;;;;;2.78;0.98;;;19.40;60.50;;;;;;4973033;28;20027;-86
2021/06/03 01:55:32;;;;;;;4.57;1.23;;;19.40;60.60;;;;;;4973128;28;20492;-82
2021/06/03 01:57:59;;;;;;;1.05;0.40;;;19.40;60.60;;;;;;4989638;28;20515;-85
2021/06/03 02:00:25;;;;;;;2.05;0.68;;;19.40;60.60;;;;;;4952673;28;20046;-85
2021/06/03 02:02:51;;;;;;;1.45;0.65;;;19.30;60.70;;;;;;4979176;28;20030;-85
2021/06/03 02:05:17;;;;;;;1.90;0.75;;;19.30;60.70;;;;;;4980435;28;20509;-84
2021/06/03 02:07:43;;;;;;;2.30;0.63;;;19.30;60.80;;;;;;4968771;28;20027;-84
2021/06/03 02:10:10;;;;;;;4.50;1.25;;;19.30;60.80;;;;;;4987481;28;20065;-86
2021/06/03 02:12:41;;;;;;;2.83;0.80;;;19.20;60.80;;;;;;4970839;28;20030;-85
2021/06/03 02:15:07;;;;;;;2.55;0.70;;;19.20;60.90;;;;;;4969896;28;20039;-84
2021/06/03 02:17:35;;;;;;;6.57;0.70;;;19.20;61.00;;;;;;4968097;28;20038;-82
2021/06/03 02:20:07;;;;;;;1.98;0.70;;;19.20;61.10;;;;;;4968020;28;20024;-85
2021/06/03 02:22:33;;;;;;;4.88;0.80;;;19.20;61.20;;;;;;4971215;28;20027;-86
2021/06/03 02:24:59;;;;;;;2.08;0.93;;;19.20;61.20;;;;;;4969729;28;20037;-81
2021/06/03 02:27:25;;;;;;;1.10;0.70;;;19.10;61.20;;;;;;4983750;28;20038;-84
2021/06/03 02:29:51;;;;;;;2.55;0.73;;;19.10;61.30;;;;;;4967810;28;20023;-84
2021/06/03 02:32:20;;;;;;;3.58;0.93;;;19.00;61.40;;;;;;4967471;28;20031;-85
2021/06/03 02:34:48;;;;;;;1.33;0.60;;;19.00;62.30;;;;;;4968431;28;20038;-83
2021/06/03 02:37:14;;;;;;;4.38;1.75;;;18.90;61.70;;;;;;4984430;28;20034;-85
2021/06/03 02:39:41;;;;;;;1.70;0.43;;;18.90;61.80;;;;;;4953166;28;20043;-85
2021/06/03 02:42:08;;;;;;;7.93;0.98;;;18.90;61.80;;;;;;4999510;28;20023;-84
2021/06/03 02:44:38;;;;;;;1.30;0.47;;;18.80;62.00;;;;;;4972351;28;20031;-86
2021/06/03 02:47:05;;;;;;;6.32;1.55;;;18.80;62.00;;;;;;4967950;28;20049;-84
2021/06/03 02:49:31;;;;;;;3.08;0.80;;;18.80;62.00;;;;;;4974263;28;20038;-85
2021/06/03 02:52:01;;;;;;;1.48;0.52;;;18.80;62.00;;;;;;4992764;28;20043;-85
2021/06/03 02:54:28;;;;;;;1.60;0.63;;;18.80;62.00;;;;;;4992204;28;20039;-83
2021/06/03 02:56:54;;;;;;;3.22;0.82;;;18.80;62.00;;;;;;4992445;28;20396;-85
2021/06/03 02:59:21;;;;;;;3.33;0.77;;;18.80;62.00;;;;;;5008795;28;20031;-85
2021/06/03 03:01:47;;;;;;;5.15;1.05;;;18.80;62.10;;;;;;4971604;28;20070;-84
2021/06/03 03:04:13;;;;;;;0.80;0.68;;;18.80;62.10;;;;;;4988699;28;20035;-85
2021/06/03 03:06:39;;;;;;;5.63;0.98;;;18.80;62.20;;;;;;4987959;28;20030;-86
2021/06/03 03:09:05;;;;;;;2.72;0.52;;;18.80;62.20;;;;;;4972134;28;20042;-85
2021/06/03 03:11:31;;;;;;;1.17;0.68;;;18.80;62.20;;;;;;4971541;28;20500;-85
2021/06/03 03:13:58;;;;;;;9.93;1.55;;;18.80;62.20;;;;;;4971878;28;20050;-87
2021/06/03 03:16:24;;;;;;;3.30;1.02;;;18.70;62.20;;;;;;4981658;28;20037;-85
2021/06/03 03:18:50;;;;;;;1.92;0.73;;;18.70;62.30;;;;;;5008100;28;20030;-84
2021/06/03 03:21:16;;;;;;;1.65;0.85;;;18.70;62.30;;;;;;5008749;28;20027;-85
2021/06/03 03:23:42;;;;;;;1.55;0.32;;;18.70;62.30;;;;;;4977243;28;20067;-85
2021/06/03 03:26:08;;;;;;;2.78;0.95;;;18.70;62.40;;;;;;4974185;28;20038;-85
2021/06/03 03:28:34;;;;;;;1.80;0.57;;;18.70;62.50;;;;;;4973313;28;20411;-85
2021/06/03 03:31:01;;;;;;;1.40;0.75;;;18.60;62.50;;;;;;4977191;28;20031;-84
2021/06/03 03:33:27;;;;;;;1.67;0.50;;;18.60;62.60;;;;;;4971733;28;20388;-83
2021/06/03 03:35:53;;;;;;;4.45;0.68;;;18.60;62.80;;;;;;4971731;28;20035;-85
2021/06/03 03:38:20;;;;;;;1.55;0.65;;;18.60;62.80;;;;;;4973123;28;20026;-82
2021/06/03 03:40:46;;;;;;;2.60;0.93;;;18.60;62.90;;;;;;4956245;28;20380;-85
2021/06/03 03:43:12;;;;;;;2.75;0.75;;;18.50;62.90;;;;;;4973343;28;20034;-85
2021/06/03 03:45:38;;;;;;;3.30;1.73;;;18.50;62.90;;;;;;4976000;28;20396;-85
2021/06/03 03:48:05;;;;;;;11.02;0.65;;;18.50;63.10;;;;;;4982109;28;20040;-85
2021/06/03 03:50:32;;;;;;;2.05;0.73;;;18.40;63.20;;;;;;4977018;28;20076;-85
2021/06/03 03:52:58;;;;;;;2.10;0.75;;;18.40;63.30;;;;;;4972907;28;20365;-85
2021/06/03 03:55:24;;;;;;;3.05;0.73;;;18.40;63.30;;;;;;4975374;28;20039;-85
2021/06/03 03:57:50;;;;;;;2.40;0.70;;;18.50;63.30;;;;;;5007658;28;20034;-84
2021/06/03 04:00:27;;;;;;;2.25;0.77;;;18.40;63.30;;;;;;4976609;28;20023;-85
2021/06/03 04:02:53;;;;;;;5.82;0.77;;;18.40;63.30;;;;;;4973640;28;20026;-84
2021/06/03 04:05:19;;;;;;;4.50;1.02;;;18.40;63.40;;;;;;4976304;28;20035;-83
2021/06/03 04:07:45;;;;;;;0.70;0.40;;;18.40;63.40;;;;;;4975016;28;20027;-85
2021/06/03 04:10:14;;;;;;;2.67;0.82;;;18.40;63.50;;;;;;4975360;28;20042;-83
2021/06/03 04:12:40;;;;;;;5.43;1.00;;;18.40;63.70;;;;;;4974873;28;20027;-85
2021/06/03 04:15:07;;;;;;;3.05;1.05;;;18.40;63.70;;;;;;4974445;28;20031;-85
2021/06/03 04:17:33;;;;;;;1.90;0.90;;;18.40;63.80;;;;;;4974605;28;20042;-86
2021/06/03 04:19:59;;;;;;;4.95;1.15;;;18.40;63.80;;;;;;4991224;28;20038;-86
2021/06/03 04:22:25;;;;;;;7.22;0.95;;;18.40;63.90;;;;;;4976059;28;20491;-84
2021/06/03 04:24:51;;;;;;;1.88;0.82;;;18.30;63.80;;;;;;4991061;28;20030;-83
2021/06/03 04:27:17;;;;;;;3.92;1.33;;;18.40;63.90;;;;;;4974742;28;20404;-85
2021/06/03 04:29:43;;;;;;;4.03;1.23;;;18.40;63.80;;;;;;4990680;28;20039;-83
2021/06/03 04:32:10;;;;;;;1.85;0.95;;;18.50;63.80;;;;;;4988342;28;20023;-84
2021/06/03 04:34:36;;;;;;;4.50;1.40;;;18.60;63.70;;;;;;4975883;28;20504;-85
2021/06/03 04:37:02;;;;;;;2.92;0.75;;;18.60;63.60;;;;;;4979102;28;20043;-85
2021/06/03 04:39:28;;;;;;;0.80;0.22;;;18.60;63.50;;;;;;4978580;28;20023;-85
2021/06/03 04:41:54;;;;;;;2.78;0.63;;;18.60;63.60;;;;;;4978599;28;20038;-86
2021/06/03 04:44:20;;;;;;;6.65;1.20;;;18.60;63.60;;;;;;4978840;28;20467;-82
2021/06/03 04:46:48;;;;;;;2.88;1.23;;;18.60;63.70;;;;;;4973892;28;20050;-86
2021/06/03 04:49:15;;;;;;;6.35;0.90;;;18.60;63.80;;;;;;4974898;28;20027;-86
2021/06/03 04:51:41;;;;;;;1.50;0.88;;;18.60;63.80;;;;;;4974327;28;20034;-86
2021/06/03 04:54:07;;;;;;;4.43;0.70;;;18.70;63.80;;;;;;4973791;28;20035;-84
2021/06/03 04:56:33;;;;;;;2.40;0.47;;;18.60;64.10;;;;;;4974089;28;20034;-85
2021/06/03 04:59:00;;;;;;;3.60;0.90;;;18.50;64.60;;;;;;4958360;28;20039;-85
2021/06/03 05:01:26;;;;;;;2.30;0.55;;;18.40;65.00;;;;;;4983737;28;20042;-85
2021/06/03 05:03:52;;;;;;;2.70;1.23;;;18.30;65.00;;;;;;4980053;28;20031;-85
2021/06/03 05:06:19;;;;;;;2.08;0.95;;;18.30;65.00;;;;;;4979318;28;20034;-82
2021/06/03 05:08:45;;;;;;;2.78;0.77;;;18.40;65.10;;;;;;4960941;28;20061;-85
2021/06/03 05:11:11;;;;;;;11.35;2.05;;;18.40;65.00;;;;;;4977030;28;20033;-85
2021/06/03 05:13:37;;;;;;;2.25;0.85;;;18.40;64.90;;;;;;4975168;28;20058;-85
2021/06/03 05:16:04;;;;;;;3.38;1.00;;;18.50;64.80;;;;;;4978734;28;20035;-84
2021/06/03 05:18:30;;;;;;;3.15;0.90;;;18.60;64.70;;;;;;4956275;28;20428;-85
2021/06/03 05:20:56;;;;;;;3.13;0.88;;;18.60;64.60;;;;;;4973669;28;20041;-85
2021/06/03 05:23:22;;;;;;;3.05;0.60;;;18.70;64.50;;;;;;4973349;28;20035;-85
2021/06/03 05:25:48;;;;;;;1.98;0.75;;;18.70;64.50;;;;;;4973736;28;20077;-85
2021/06/03 05:28:15;;;;;;;2.45;0.63;;;18.80;64.50;;;;;;4971263;28;20031;-85
2021/06/03 05:30:41;;;;;;;4.55;1.00;;;18.80;64.50;;;;;;4978386;28;20038;-84
2021/06/03 05:33:07;;;;;;;3.17;0.68;;;18.80;64.60;;;;;;4966539;28;20053;-85
2021/06/03 05:35:33;;;;;;;3.00;1.10;;;18.80;64.60;;;;;;4978803;28;20045;-86
2021/06/03 05:38:00;;;;;;;3.67;0.90;;;18.80;64.70;;;;;;4974642;28;20061;-85
2021/06/03 05:40:27;;;;;;;3.50;0.85;;;18.80;64.70;;;;;;4976184;28;20396;-84
2021/06/03 05:42:54;;;;;;;3.58;1.08;;;18.80;64.70;;;;;;4978247;28;20031;-85
2021/06/03 05:45:20;;;;;;;2.22;0.75;;;18.80;64.70;;;;;;4993448;28;20045;-85
2021/06/03 05:47:47;;;;;;;2.40;0.98;;;18.80;64.80;;;;;;4989406;28;20031;-85
2021/06/03 05:50:14;;;;;;;3.05;0.95;;;18.80;64.70;;;;;;4972756;28;20038;-85
2021/06/03 05:52:41;;;;;;;2.60;1.27;;;18.90;64.70;;;;;;4973143;28;20031;-84
2021/06/03 05:55:08;;;;;;;1.77;0.60;;;19.00;64.70;;;;;;4973565;28;20046;-85
2021/06/03 05:57:35;;;;;;;2.83;0.70;;;19.00;64.60;;;;;;4989083;28;20031;-85
2021/06/03 06:00:07;;;;;;;2.70;1.10;;;19.10;64.60;;;;;;4974391;28;20031;-85
2021/06/03 06:08:14;;;;;;;3.47;1.20;;;19.10;64.60;;;;;;4944546;28;20034;-86
2021/06/03 06:10:41;;;;;;;1.55;0.90;;;19.20;64.60;;;;;;4951687;28;20035;-85
2021/06/03 06:13:07;;;;;;;1.90;0.75;;;19.20;64.70;;;;;;4969173;28;20039;-85
2021/06/03 06:15:34;;;;;;;3.55;1.25;;;19.10;64.70;;;;;;4967848;28;20044;-85
2021/06/03 06:18:00;;;;;;;2.60;0.77;;;19.20;64.80;;;;;;4955534;28;20031;-85
2021/06/03 06:20:27;;;;;;;2.97;0.45;;;19.20;64.80;;;;;;4953715;28;20023;-85
2021/06/03 06:22:55;;;;;;;1.40;0.65;;;19.20;64.80;;;;;;4918650;28;20437;-84
2021/06/03 06:25:22;;;;;;;6.78;0.98;;;19.30;64.80;;;;;;4955576;28;20039;-85
2021/06/03 06:27:48;;;;;;;2.47;1.08;;;19.20;64.70;;;;;;4966416;28;20043;-84
2021/06/03 06:30:15;;;;;;;1.77;1.00;;;19.20;64.70;;;;;;4966205;28;20040;-85
2021/06/03 06:32:41;;;;;;;5.88;1.02;;;19.20;64.70;;;;;;4946916;28;20051;-83
2021/06/03 06:35:08;;;;;;;4.63;1.50;;;19.20;64.80;;;;;;4937138;28;20151;-85
2021/06/03 06:37:34;;;;;;;2.90;1.02;;;19.20;64.90;;;;;;4953119;28;20042;-85
2021/06/03 06:40:02;;;;;;;3.85;1.05;;;19.20;64.90;;;;;;4954953;28;20042;-85
2021/06/03 06:42:30;;;;;;;5.53;1.70;;;19.20;64.90;;;;;;4964178;28;20045;-83
2021/06/03 06:44:56;;;;;;;2.45;0.88;;;19.20;64.90;;;;;;4959504;28;20035;-83
2021/06/03 06:47:23;;;;;;;2.10;0.60;;;19.20;65.00;;;;;;4971636;28;20038;-84
2021/06/03 06:49:49;;;;;;;6.93;1.45;;;19.30;65.00;;;;;;4971999;28;20419;-83
2021/06/03 06:52:15;;;;;;;3.20;1.23;;;19.30;65.00;;;;;;4973956;28;20041;-82
2021/06/03 06:54:41;;;;;;;1.77;0.88;;;19.30;64.90;;;;;;4972047;28;20492;-85
2021/06/03 06:57:08;;;;;;;2.78;0.75;;;19.40;64.80;;;;;;4956107;28;20045;-82
2021/06/03 06:59:34;;;;;;;3.85;1.17;;;19.40;64.70;;;;;;4972213;28;20049;-85
2021/06/03 07:02:00;;;;;;;2.67;0.98;;;19.50;65.50;;;;;;4965707;28;20035;-85
2021/06/03 07:04:26;;;;;;;2.00;0.98;;;19.50;64.60;;;;;;4975599;28;20031;-85
2021/06/03 07:06:52;;;;;;;4.82;1.55;;;19.50;64.50;;;;;;5009094;28;20031;-85
2021/06/03 07:09:18;;;;;;;2.28;1.27;;;19.60;64.40;;;;;;4977312;28;20033;-86
2021/06/03 07:11:44;;;;;;;5.32;1.33;;;19.70;64.40;;;;;;4958953;28;20519;-85
2021/06/03 07:14:10;;;;;;;2.40;0.65;;;19.80;64.30;;;;;;4957968;28;20038;-85
2021/06/03 07:16:37;;;;;;;1.52;0.70;;;19.90;64.20;;;;;;4973828;28;20047;-85
2021/06/03 07:19:03;;;;;;;3.00;1.13;;;20.00;64.10;;;;;;4973196;28;20046;-85
2021/06/03 07:21:30;;;;;;;2.83;1.10;;;20.00;64.00;;;;;;4973095;28;20023;-85
2021/06/03 07:23:56;;;;;;;4.63;0.95;;;20.00;63.90;;;;;;4971821;28;20461;-83
2021/06/03 07:26:24;;;;;;;7.93;0.80;;;20.10;63.80;;;;;;4972814;28;20026;-84
2021/06/03 07:28:53;;;;;;;2.53;1.10;;;20.20;63.70;;;;;;4973038;28;20027;-85
2021/06/03 07:31:19;;;;;;;2.90;0.80;;;20.20;63.60;;;;;;4983028;28;20496;-85
2021/06/03 07:33:45;;;;;;;3.35;1.05;;;20.20;63.70;;;;;;4992697;28;20484;-85
2021/06/03 07:36:11;;;;;;;5.75;1.10;;;20.10;63.70;;;;;;4977131;28;20508;-85
2021/06/03 07:38:38;;;;;;;2.50;1.00;;;20.00;63.80;;;;;;4979617;28;20027;-85
2021/06/03 07:41:04;;;;;;;5.50;1.60;;;20.00;64.00;;;;;;4977620;28;20031;-84
2021/06/03 07:43:30;;;;;;;2.97;1.02;;;19.90;64.10;;;;;;4994367;28;20065;-85
2021/06/03 07:45:56;;;;;;;2.17;1.10;;;19.90;64.30;;;;;;5012094;28;20057;-83
2021/06/03 07:48:23;;;;;;;1.27;0.50;;;19.80;64.40;;;;;;4992133;28;20038;-85
2021/06/03 07:50:49;;;;;;;3.10;0.77;;;19.80;64.60;;;;;;4975447;28;20031;-85
2021/06/03 07:53:15;;;;;;;1.60;1.05;;;19.70;64.60;;;;;;4975343;28;20026;-85
2021/06/03 07:55:41;;;;;;;2.53;0.73;;;19.70;64.60;;;;;;4976409;28;20051;-84
2021/06/03 07:58:09;;;;;;;1.92;0.93;;;19.70;64.60;;;;;;4991946;28;20030;-87
2021/06/03 08:00:36;;;;;;;5.22;1.40;;;19.70;64.60;;;;;;5007178;28;20034;-87
2021/06/03 08:03:03;;;;;;;2.92;0.90;;;19.70;64.70;;;;;;4974725;28;20027;-86
2021/06/03 08:05:29;;;;;;;1.77;0.65;;;19.70;64.80;;;;;;4991220;28;20376;-87
2021/06/03 08:07:56;;;;;;;11.05;1.63;;;19.70;64.80;;;;;;4975091;28;20029;-87
2021/06/03 08:10:28;;;;;;;2.20;0.88;;;19.70;64.90;;;;;;4975160;28;20050;-87
2021/06/03 08:12:54;;;;;;;5.25;1.73;;;19.60;65.10;;;;;;4991091;28;20035;-86
2021/06/03 08:15:21;;;;;;;5.47;1.63;;;19.50;65.50;;;;;;4973945;28;20031;-86
2021/06/03 08:17:48;;;;;;;2.45;1.05;;;19.40;65.80;;;;;;4974867;28;20026;-86
2021/06/03 08:20:17;;;;;;;2.63;1.00;;;19.30;66.00;;;;;;4975043;28;20027;-86
2021/06/03 08:22:43;;;;;;;4.20;1.35;;;19.30;66.10;;;;;;4958946;28;20031;-86
2021/06/03 08:25:10;;;;;;;3.13;1.17;;;19.30;66.20;;;;;;4976597;28;20027;-86
2021/06/03 08:27:36;;;;;;;2.53;1.20;;;19.30;66.20;;;;;;4974680;28;20031;-85
2021/06/03 08:30:04;;;;;;;6.63;1.58;;;19.30;66.20;;;;;;4975566;28;20050;-86
2021/06/03 08:32:30;;;;;;;3.97;0.90;;;19.40;66.30;;;;;;4971893;28;20026;-85
2021/06/03 08:34:56;;;;;;;3.55;1.25;;;19.40;66.40;;;;;;4958550;28;20395;-87
2021/06/03 08:37:22;;;;;;;2.13;0.55;;;19.40;67.20;;;;;;4977976;28;20035;-86
2021/06/03 08:39:49;;;;;;;5.07;1.23;;;19.40;66.50;;;;;;4995370;28;20034;-87
2021/06/03 08:42:15;;;;;;;3.20;0.88;;;19.40;66.60;;;;;;5011107;28;20476;-86
2021/06/03 08:44:42;;;;;;;6.65;1.52;;;19.30;66.70;;;;;;4994426;28;20035;-85
2021/06/03 08:47:09;;;;;;;1.88;0.82;;;19.30;66.80;;;;;;4975309;28;20055;-87
2021/06/03 08:49:36;;;;;;;3.72;1.63;;;19.30;66.90;;;;;;4957495;28;20057;-86
2021/06/03 08:52:03;;;;;;;4.43;1.45;;;19.30;67.00;;;;;;4991033;28;20035;-85
2021/06/03 08:54:31;;;;;;;5.22;1.30;;;19.30;67.10;;;;;;4974211;28;20031;-85
2021/06/03 08:56:58;;;;;;;2.83;0.90;;;19.20;67.10;;;;;;4975418;28;20038;-87
2021/06/03 08:59:24;;;;;;;8.80;1.65;;;19.30;67.30;;;;;;4973913;28;20027;-86
2021/06/03 09:01:50;;;;;;;2.83;1.33;;;19.30;67.30;;;;;;4984261;28;20046;-86
2021/06/03 09:04:16;;;;;;;2.78;1.40;;;19.20;67.30;;;;;;4978836;28;20030;-85
2021/06/03 09:06:42;;;;;;;3.50;1.08;;;19.20;67.40;;;;;;4978296;28;20034;-85
2021/06/03 09:09:11;;;;;;;3.53;1.05;;;19.20;67.50;;;;;;4978254;28;20052;-85
2021/06/03 09:11:37;;;;;;;3.67;0.93;;;19.20;67.60;;;;;;4978319;28;20026;-85
2021/06/03 09:14:08;;;;;;;3.20;1.70;;;19.10;67.70;;;;;;4975484;28;20023;-85
2021/06/03 09:16:38;;;;;;;4.63;1.52;;;19.10;67.90;;;;;;4976149;28;20049;-84
2021/06/03 09:19:11;;;;;;;2.35;0.95;;;19.10;67.90;;;;;;4974477;28;20027;-85
2021/06/03 09:21:44;;;;;;;2.03;0.70;;;19.10;68.00;;;;;;4954585;28;20035;-85
2021/06/03 09:24:14;;;;;;;1.45;0.50;;;19.10;68.20;;;;;;4957771;28;20035;-85
2021/06/03 09:26:50;;;;;;;1.75;0.45;;;19.10;68.40;;;;;;4989391;28;20037;-85
2021/06/03 09:29:34;;;;;;;1.23;0.68;;;19.00;68.50;;;;;;4973239;28;20027;-85
2021/06/03 09:32:11;;;;;;;3.75;1.02;;;19.00;68.60;;;;;;4960711;28;20031;-85
2021/06/03 09:34:41;;;;;;;9.80;0.77;;;19.00;68.70;;;;;;4957512;28;20392;-84
2021/06/03 09:37:09;;;;;;;2.03;0.63;;;19.00;68.80;;;;;;4974139;28;20037;-85
2021/06/03 09:39:35;;;;;;;2.65;1.00;;;19.00;69.50;;;;;;4989524;28;20019;-85
2021/06/03 09:42:21;;;;;;;8.05;1.70;;;19.00;68.90;;;;;;4974444;28;20034;-85
2021/06/03 09:44:49;;;;;;;3.00;1.10;;;19.00;68.90;;;;;;4973280;28;20033;-85
2021/06/03 09:47:20;;;;;;;5.32;1.25;;;19.00;68.90;;;;;;4986572;28;20034;-85
2021/06/03 09:49:53;;;;;;;3.10;1.17;;;19.10;69.00;;;;;;4957562;28;20050;-85
2021/06/03 09:52:20;;;;;;;6.13;1.58;;;19.10;68.90;;;;;;5016819;28;20502;-83
2021/06/03 09:54:51;;;;;;;3.40;1.15;;;19.10;68.80;;;;;;5009546;28;20042;-85
2021/06/03 09:57:17;;;;;;;3.95;1.73;;;19.20;68.90;;;;;;4992711;28;20035;-85
2021/06/03 09:59:44;;;;;;;3.78;1.40;;;19.20;68.90;;;;;;4993494;28;20027;-85
2021/06/03 10:02:11;;;;;;;2.92;1.40;;;19.20;68.80;;;;;;4972424;28;20388;-84
2021/06/03 10:04:45;;;;;;;4.38;1.10;;;19.20;69.00;;;;;;4973151;28;20027;-85
2021/06/03 10:07:12;;;;;;;3.17;1.73;;;19.20;69.10;;;;;;4973415;28;20110;-85
2021/06/03 10:09:48;;;;;;;2.05;0.80;;;19.20;69.30;;;;;;4989092;28;20023;-85
2021/06/03 10:12:23;;;;;;;2.88;1.38;;;19.20;69.30;;;;;;4972742;28;20396;-85
2021/06/03 10:14:50;;;;;;;6.55;1.40;;;19.20;69.30;;;;;;4973971;28;20038;-85
2021/06/03 10:17:26;;;;;;;7.60;1.30;;;19.20;69.30;;;;;;4986088;28;20042;-85
2021/06/03 10:19:54;;;;;;;2.50;1.30;;;19.30;69.30;;;;;;4959739;28;20023;-84
2021/06/03 10:22:28;;;;;;;2.47;0.77;;;19.30;69.10;;;;;;4976620;28;20030;-84
2021/06/03 10:25:04;;;;;;;3.80;1.15;;;19.40;69.20;;;;;;4993458;28;20038;-86
2021/06/03 10:27:56;;;;;;;2.90;1.35;;;19.40;69.10;;;;;;4977787;28;20018;-86
2021/06/03 10:30:38;;;;;;;3.38;1.38;;;19.40;69.10;;;;;;4957231;28;20519;-87
2021/06/03 10:33:06;;;;;;;4.40;1.48;;;19.40;69.30;;;;;;4965879;28;20039;-86
2021/06/03 10:35:34;;;;;;;1.10;0.70;;;19.40;69.40;;;;;;4972064;28;20042;-85
2021/06/03 10:38:00;;;;;;;2.72;0.90;;;19.30;69.80;;;;;;4972566;28;20050;-86
2021/06/03 10:40:28;;;;;;;4.78;1.33;;;19.30;70.00;;;;;;4972010;28;20500;-85
2021/06/03 10:42:54;;;;;;;3.00;1.10;;;19.20;70.00;;;;;;4989208;28;20380;-85
2021/06/03 10:45:21;;;;;;;2.47;1.05;;;19.30;70.10;;;;;;4987648;28;20484;-85
2021/06/03 10:47:47;;;;;;;2.35;0.70;;;19.30;70.00;;;;;;4972698;28;20042;-85
2021/06/03 10:50:18;;;;;;;2.08;0.73;;;19.30;70.10;;;;;;4972665;28;20502;-85
2021/06/03 10:52:44;;;;;;;2.38;0.75;;;19.30;70.20;;;;;;4956395;28;20034;-85
2021/06/03 10:55:10;;;;;;;3.72;0.65;;;19.30;70.20;;;;;;4988408;28;20030;-86
2021/06/03 10:57:54;;;;;;;2.00;0.60;;;19.30;70.50;;;;;;4952739;28;20038;-85
2021/06/03 11:00:30;;;;;;;8.38;1.25;;;19.30;70.70;;;;;;4984380;28;20043;-85
2021/06/03 11:03:02;;;;;;;2.28;1.15;;;19.30;70.90;;;;;;4973161;28;20030;-85
2021/06/03 11:05:30;;;;;;;3.22;1.15;;;19.30;71.00;;;;;;4956408;28;20420;-85
2021/06/03 11:07:56;;;;;;;2.33;0.85;;;19.40;71.00;;;;;;4973161;28;20034;-85
2021/06/03 11:10:32;;;;;;;8.00;1.95;;;19.40;70.90;;;;;;4971912;28;20023;-86
2021/06/03 11:13:11;;;;;;;2.10;0.95;;;19.50;70.80;;;;;;4985305;28;20031;-85
2021/06/03 11:16:09;;;;;;;3.88;0.98;;;19.50;70.80;;;;;;4977259;28;20514;-85
2021/06/03 11:18:47;;;;;;;3.47;1.38;;;19.50;70.80;;;;;;4978465;28;20038;-85
2021/06/03 11:21:32;;;;;;;2.92;0.75;;;19.60;71.10;;;;;;4977211;28;20031;-85
2021/06/03 11:24:27;;;;;;;4.00;1.00;;;19.60;71.00;;;;;;4975611;28;20042;-87
2021/06/03 11:27:00;;;;;;;2.55;1.10;;;19.60;71.00;;;;;;4977191;28;20023;-86
2021/06/03 11:29:33;;;;;;;5.97;0.90;;;19.70;71.00;;;;;;4976029;28;20034;-85
2021/06/03 11:32:03;;;;;;;1.95;0.38;;;19.80;70.80;;;;;;4971426;28;20045;-85
2021/06/03 11:34:38;;;;;;;3.78;1.20;;;19.90;70.60;;;;;;4973092;28;20388;-85
2021/06/03 11:37:08;;;;;;;5.80;1.17;;;20.10;70.40;;;;;;4971919;28;20043;-85
2021/06/03 11:39:39;;;;;;;2.70;1.25;;;20.20;70.10;;;;;;4988140;28;20041;-86
2021/06/03 11:42:30;;;;;;;4.40;0.77;;;20.30;70.00;;;;;;4972666;28;20041;-85
2021/06/03 11:45:03;;;;;;;1.42;0.85;;;20.40;69.80;;;;;;4971329;28;20050;-85
2021/06/03 11:47:57;;;;;;;3.75;1.17;;;20.50;69.60;;;;;;4986253;28;20038;-85
2021/06/03 11:50:23;;;;;;;1.88;0.70;;;20.50;69.60;;;;;;4975918;28;20014;-85
2021/06/03 11:52:52;;;;;;;1.83;0.63;;;20.60;69.50;;;;;;4972623;28;20030;-85
2021/06/03 11:55:34;;;;;;;2.50;1.23;;;20.60;69.60;;;;;;5016480;28;20057;-86
2021/06/03 11:58:13;;;;;;;3.42;1.20;;;20.60;69.70;;;;;;5005453;28;20465;-85
2021/06/03 12:00:40;;;;;;;5.15;0.80;;;20.60;69.80;;;;;;4976578;28;20039;-85
2021/06/03 12:03:32;;;;;;;4.88;1.40;;;20.60;69.90;;;;;;4954414;28;20042;-86
2021/06/03 12:06:00;;;;;;;4.70;1.10;;;20.50;70.00;;;;;;4972600;28;20496;-86
2021/06/03 12:08:42;;;;;;;2.25;0.98;;;20.60;69.80;;;;;;4971043;28;20388;-85
2021/06/03 12:11:13;;;;;;;2.75;0.95;;;20.60;69.80;;;;;;4971514;28;20023;-85
2021/06/03 12:13:40;;;;;;;5.00;1.48;;;20.70;69.80;;;;;;4971647;28;20755;-84
2021/06/03 12:16:06;;;;;;;3.63;1.15;;;20.70;69.80;;;;;;4987551;28;20039;-85
2021/06/03 12:18:36;;;;;;;3.53;0.90;;;20.70;69.80;;;;;;4972560;28;20035;-86
2021/06/03 12:21:03;;;;;;;2.10;0.85;;;20.70;69.80;;;;;;4971302;28;20022;-86
2021/06/03 12:23:29;;;;;;;3.50;1.00;;;20.70;70.00;;;;;;4970840;28;20380;-85
2021/06/03 12:25:55;;;;;;;2.70;0.98;;;20.70;70.10;;;;;;4973836;28;20027;-85
2021/06/03 12:28:21;;;;;;;4.68;1.60;;;20.60;70.20;;;;;;4976284;28;20030;-85
2021/06/03 12:30:48;;;;;;;1.80;0.70;;;20.60;70.20;;;;;;4990325;28;20038;-86
2021/06/03 12:33:16;;;;;;;2.58;0.88;;;20.60;70.30;;;;;;4975833;28;20027;-86
2021/06/03 12:35:50;;;;;;;3.30;1.13;;;20.60;70.30;;;;;;4974546;28;20042;-85
2021/06/03 12:38:34;;;;;;;2.03;1.20;;;20.70;70.20;;;;;;4974584;28;20027;-85
2021/06/03 12:41:21;;;;;;;2.90;1.27;;;20.70;70.20;;;;;;4962151;28;20027;-85
2021/06/03 12:43:51;;;;;;;3.15;0.80;;;20.80;70.00;;;;;;4974785;28;20057;-86
2021/06/03 12:46:17;;;;;;;4.13;1.00;;;20.90;69.90;;;;;;4970580;28;20043;-85
2021/06/03 12:48:44;;;;;;;2.10;0.77;;;21.00;69.80;;;;;;4974349;28;20031;-87
2021/06/03 12:51:13;;;;;;;1.67;0.77;;;21.00;69.80;;;;;;4973897;28;20038;-86
2021/06/03 12:53:39;;;;;;;3.25;1.48;;;21.00;69.70;;;;;;4974398;28;20023;-86
2021/06/03 12:56:16;;;;;;;3.20;1.02;;;21.10;69.70;;;;;;4974181;28;20038;-85
2021/06/03 12:58:42;;;;;;;3.75;1.05;;;21.10;69.70;;;;;;4958307;28;20496;-86